Hengch'un, Taiwan
Current Conditions -  °F | °C
As of 10:00 AM on Tuesday 25 Nov 2014 (Local Time) from RCKH Reporting Station
Clear Clear  
Wind Chill: 82°   Ceiling: Unl
Heat Index: 84°   Visibility: 5mi
Dew Point: 64°   Wind: 5mph
Humidity: 54%   Direction: 10°N
Pressure: 29.94"   Gusts: NA
Location:  22°N, 120.75°E
Report Text: RCKH 250200Z 01004KT 310V070 8000 NSC 28/18 Q1014 NOSIG RMKA2996
Loading
Personal Weather Stations






























Interactive Weather Map New forecast layout! Learn more

10-Day Weather Forecast

Advertisements
Track Severe Weather on mobile